sensor_id;sensor_type;location;lat;lon;timestamp;temperature;humidity
63966;DHT22;50151;52.030;5.350;2023-08-30T00:01:02;12.50;99.90
63966;DHT22;50151;52.030;5.350;2023-08-30T00:03:29;12.50;99.90
63966;DHT22;50151;52.030;5.350;2023-08-30T00:06:02;12.40;99.90
63966;DHT22;50151;52.030;5.350;2023-08-30T00:08:29;12.50;99.90
63966;DHT22;50151;52.030;5.350;2023-08-30T00:10:56;12.50;99.90
63966;DHT22;50151;52.030;5.350;2023-08-30T00:13:26;12.40;99.90
63966;DHT22;50151;52.030;5.350;2023-08-30T00:15:53;12.40;99.90
63966;DHT22;50151;52.030;5.350;2023-08-30T00:18:20;12.40;99.90
63966;DHT22;50151;52.030;5.350;2023-08-30T00:20:46;12.40;99.90
63966;DHT22;50151;52.030;5.350;2023-08-30T00:23:13;12.40;99.90
63966;DHT22;50151;52.030;5.350;2023-08-30T00:25:40;12.30;99.90
63966;DHT22;50151;52.030;5.350;2023-08-30T00:28:07;12.30;99.90
63966;DHT22;50151;52.030;5.350;2023-08-30T00:30:34;12.30;99.90
63966;DHT22;50151;52.030;5.350;2023-08-30T00:33:00;12.30;99.90
63966;DHT22;50151;52.030;5.350;2023-08-30T00:35:28;12.30;99.90
63966;DHT22;50151;52.030;5.350;2023-08-30T00:37:55;12.20;99.90
63966;DHT22;50151;52.030;5.350;2023-08-30T00:40:25;12.20;99.90
63966;DHT22;50151;52.030;5.350;2023-08-30T00:42:52;12.30;99.90
63966;DHT22;50151;52.030;5.350;2023-08-30T00:45:19;12.30;99.90
63966;DHT22;50151;52.030;5.350;2023-08-30T00:47:46;12.30;99.90
63966;DHT22;50151;52.030;5.350;2023-08-30T00:50:13;12.40;99.90
63966;DHT22;50151;52.030;5.350;2023-08-30T00:52:40;12.40;99.90
63966;DHT22;50151;52.030;5.350;2023-08-30T00:55:08;12.40;99.90
63966;DHT22;50151;52.030;5.350;2023-08-30T00:57:35;12.40;99.90
63966;DHT22;50151;52.030;5.350;2023-08-30T01:00:03;12.40;99.90
63966;DHT22;50151;52.030;5.350;2023-08-30T01:02:31;12.40;99.90
63966;DHT22;50151;52.030;5.350;2023-08-30T01:04:59;12.50;99.90
63966;DHT22;50151;52.030;5.350;2023-08-30T01:07:25;12.50;99.90
63966;DHT22;50151;52.030;5.350;2023-08-30T01:09:54;12.50;99.90
63966;DHT22;50151;52.030;5.350;2023-08-30T01:12:24;12.50;99.90
63966;DHT22;50151;52.030;5.350;2023-08-30T01:14:58;12.50;99.90
63966;DHT22;50151;52.030;5.350;2023-08-30T01:17:26;12.50;99.90
63966;DHT22;50151;52.030;5.350;2023-08-30T01:20:01;12.50;99.90
63966;DHT22;50151;52.030;5.350;2023-08-30T01:27:48;12.60;99.90
63966;DHT22;50151;52.030;5.350;2023-08-30T01:30:17;12.60;99.90
63966;DHT22;50151;52.030;5.350;2023-08-30T01:32:45;12.60;99.90
63966;DHT22;50151;52.030;5.350;2023-08-30T01:35:12;12.60;99.90
63966;DHT22;50151;52.030;5.350;2023-08-30T01:37:47;12.60;99.90
63966;DHT22;50151;52.030;5.350;2023-08-30T01:40:16;12.60;99.90
63966;DHT22;50151;52.030;5.350;2023-08-30T01:42:44;12.70;99.90
63966;DHT22;50151;52.030;5.350;2023-08-30T01:45:13;12.70;99.90
63966;DHT22;50151;52.030;5.350;2023-08-30T01:47:44;12.70;99.90
63966;DHT22;50151;52.030;5.350;2023-08-30T01:50:12;12.70;99.90
63966;DHT22;50151;52.030;5.350;2023-08-30T01:52:40;12.70;99.90
63966;DHT22;50151;52.030;5.350;2023-08-30T01:55:08;12.70;99.90
63966;DHT22;50151;52.030;5.350;2023-08-30T01:57:36;12.70;99.90
63966;DHT22;50151;52.030;5.350;2023-08-30T02:00:04;12.70;99.90
63966;DHT22;50151;52.030;5.350;2023-08-30T02:02:32;12.70;99.90
63966;DHT22;50151;52.030;5.350;2023-08-30T02:04:59;12.80;99.90
63966;DHT22;50151;52.030;5.350;2023-08-30T02:07:58;12.80;99.90
63966;DHT22;50151;52.030;5.350;2023-08-30T02:10:37;12.80;99.90
63966;DHT22;50151;52.030;5.350;2023-08-30T02:13:07;12.80;99.90
63966;DHT22;50151;52.030;5.350;2023-08-30T02:15:35;12.80;99.90
63966;DHT22;50151;52.030;5.350;2023-08-30T02:18:05;12.80;99.90
63966;DHT22;50151;52.030;5.350;2023-08-30T02:20:32;12.80;99.90
63966;DHT22;50151;52.030;5.350;2023-08-30T02:22:59;12.80;99.90
63966;DHT22;50151;52.030;5.350;2023-08-30T02:25:39;12.70;99.90
63966;DHT22;50151;52.030;5.350;2023-08-30T02:28:06;12.80;99.90
63966;DHT22;50151;52.030;5.350;2023-08-30T02:30:33;12.80;99.90
63966;DHT22;50151;52.030;5.350;2023-08-30T02:33:00;12.80;99.90
63966;DHT22;50151;52.030;5.350;2023-08-30T02:35:27;12.90;99.90
63966;DHT22;50151;52.030;5.350;2023-08-30T02:37:53;12.90;99.90
63966;DHT22;50151;52.030;5.350;2023-08-30T02:40:20;12.90;99.90
63966;DHT22;50151;52.030;5.350;2023-08-30T02:42:47;12.80;99.90
63966;DHT22;50151;52.030;5.350;2023-08-30T02:45:13;12.90;99.90
63966;DHT22;50151;52.030;5.350;2023-08-30T02:47:40;12.90;99.90
63966;DHT22;50151;52.030;5.350;2023-08-30T02:50:07;12.90;99.90
63966;DHT22;50151;52.030;5.350;2023-08-30T02:52:34;12.90;99.90
63966;DHT22;50151;52.030;5.350;2023-08-30T02:55:00;12.90;99.90
63966;DHT22;50151;52.030;5.350;2023-08-30T02:57:27;12.90;99.90
63966;DHT22;50151;52.030;5.350;2023-08-30T02:59:53;12.90;99.90
63966;DHT22;50151;52.030;5.350;2023-08-30T03:02:20;12.90;99.90
63966;DHT22;50151;52.030;5.350;2023-08-30T03:04:47;12.90;99.90
63966;DHT22;50151;52.030;5.350;2023-08-30T03:07:13;12.90;99.90
63966;DHT22;50151;52.030;5.350;2023-08-30T03:09:40;12.90;99.90
63966;DHT22;50151;52.030;5.350;2023-08-30T03:12:07;12.90;99.90
63966;DHT22;50151;52.030;5.350;2023-08-30T03:14:34;12.80;99.90
63966;DHT22;50151;52.030;5.350;2023-08-30T03:17:00;12.80;99.90
63966;DHT22;50151;52.030;5.350;2023-08-30T03:19:27;12.80;99.90
63966;DHT22;50151;52.030;5.350;2023-08-30T03:21:54;12.70;99.90
63966;DHT22;50151;52.030;5.350;2023-08-30T03:24:20;12.70;99.90
63966;DHT22;50151;52.030;5.350;2023-08-30T03:26:47;12.60;99.90
63966;DHT22;50151;52.030;5.350;2023-08-30T03:29:13;12.60;99.90
63966;DHT22;50151;52.030;5.350;2023-08-30T03:31:40;12.60;99.90
63966;DHT22;50151;52.030;5.350;2023-08-30T03:34:07;12.50;99.90
63966;DHT22;50151;52.030;5.350;2023-08-30T03:36:34;12.50;99.90
63966;DHT22;50151;52.030;5.350;2023-08-30T03:39:00;12.50;99.90
63966;DHT22;50151;52.030;5.350;2023-08-30T03:41:27;12.50;99.90
63966;DHT22;50151;52.030;5.350;2023-08-30T03:43:54;12.40;99.90
63966;DHT22;50151;52.030;5.350;2023-08-30T03:46:21;12.30;99.90
63966;DHT22;50151;52.030;5.350;2023-08-30T03:48:47;12.30;99.90
63966;DHT22;50151;52.030;5.350;2023-08-30T03:51:14;12.20;99.90
63966;DHT22;50151;52.030;5.350;2023-08-30T03:53:41;12.20;99.90
63966;DHT22;50151;52.030;5.350;2023-08-30T03:56:08;12.20;99.90
63966;DHT22;50151;52.030;5.350;2023-08-30T03:58:34;12.20;99.90
63966;DHT22;50151;52.030;5.350;2023-08-30T04:01:01;12.20;99.90
63966;DHT22;50151;52.030;5.350;2023-08-30T04:03:28;12.20;99.90
63966;DHT22;50151;52.030;5.350;2023-08-30T04:05:55;12.10;99.90
63966;DHT22;50151;52.030;5.350;2023-08-30T04:08:23;12.00;99.90
63966;DHT22;50151;52.030;5.350;2023-08-30T04:10:52;12.10;99.90
63966;DHT22;50151;52.030;5.350;2023-08-30T04:13:19;12.00;99.90
63966;DHT22;50151;52.030;5.350;2023-08-30T04:15:46;12.00;99.90
63966;DHT22;50151;52.030;5.350;2023-08-30T04:18:13;11.90;99.90
63966;DHT22;50151;52.030;5.350;2023-08-30T04:20:44;11.90;99.90
63966;DHT22;50151;52.030;5.350;2023-08-30T04:23:12;11.80;99.90
63966;DHT22;50151;52.030;5.350;2023-08-30T04:25:39;11.80;99.90
63966;DHT22;50151;52.030;5.350;2023-08-30T04:28:05;11.80;99.90
63966;DHT22;50151;52.030;5.350;2023-08-30T04:30:35;11.80;99.90
63966;DHT22;50151;52.030;5.350;2023-08-30T04:33:01;11.80;99.90
63966;DHT22;50151;52.030;5.350;2023-08-30T04:35:30;11.80;99.90
63966;DHT22;50151;52.030;5.350;2023-08-30T04:37:58;11.70;99.90
63966;DHT22;50151;52.030;5.350;2023-08-30T04:40:25;11.70;99.90
63966;DHT22;50151;52.030;5.350;2023-08-30T04:42:53;11.60;99.90
63966;DHT22;50151;52.030;5.350;2023-08-30T04:45:19;11.60;99.90
63966;DHT22;50151;52.030;5.350;2023-08-30T04:47:46;11.60;99.90
63966;DHT22;50151;52.030;5.350;2023-08-30T04:50:13;11.60;99.90
63966;DHT22;50151;52.030;5.350;2023-08-30T04:52:40;11.60;99.90
63966;DHT22;50151;52.030;5.350;2023-08-30T04:55:07;11.50;99.90
63966;DHT22;50151;52.030;5.350;2023-08-30T04:57:34;11.50;99.90
63966;DHT22;50151;52.030;5.350;2023-08-30T05:00:00;11.50;99.90
63966;DHT22;50151;52.030;5.350;2023-08-30T05:02:31;11.50;99.90
63966;DHT22;50151;52.030;5.350;2023-08-30T05:04:58;11.50;99.90
63966;DHT22;50151;52.030;5.350;2023-08-30T05:07:25;11.40;99.90
63966;DHT22;50151;52.030;5.350;2023-08-30T05:09:52;11.40;99.90
63966;DHT22;50151;52.030;5.350;2023-08-30T05:12:18;11.50;99.90
63966;DHT22;50151;52.030;5.350;2023-08-30T05:14:45;11.40;99.90
63966;DHT22;50151;52.030;5.350;2023-08-30T05:17:12;11.50;99.90
63966;DHT22;50151;52.030;5.350;2023-08-30T05:19:38;11.50;99.90
63966;DHT22;50151;52.030;5.350;2023-08-30T05:22:05;11.50;99.90
63966;DHT22;50151;52.030;5.350;2023-08-30T05:24:32;11.50;99.90
63966;DHT22;50151;52.030;5.350;2023-08-30T05:27:00;11.60;99.90
63966;DHT22;50151;52.030;5.350;2023-08-30T05:29:26;11.60;99.90
63966;DHT22;50151;52.030;5.350;2023-08-30T05:31:53;11.70;99.90
63966;DHT22;50151;52.030;5.350;2023-08-30T05:34:20;11.70;99.90
63966;DHT22;50151;52.030;5.350;2023-08-30T05:36:46;11.80;99.90
63966;DHT22;50151;52.030;5.350;2023-08-30T05:39:13;11.80;99.90
63966;DHT22;50151;52.030;5.350;2023-08-30T05:41:40;11.80;99.90
63966;DHT22;50151;52.030;5.350;2023-08-30T05:44:07;11.90;99.90
63966;DHT22;50151;52.030;5.350;2023-08-30T05:46:35;11.90;99.90
63966;DHT22;50151;52.030;5.350;2023-08-30T05:49:01;11.90;99.90
63966;DHT22;50151;52.030;5.350;2023-08-30T05:51:29;11.90;99.90
63966;DHT22;50151;52.030;5.350;2023-08-30T05:53:56;12.00;99.90
63966;DHT22;50151;52.030;5.350;2023-08-30T05:56:23;12.00;99.90
63966;DHT22;50151;52.030;5.350;2023-08-30T05:58:49;12.10;99.90
63966;DHT22;50151;52.030;5.350;2023-08-30T06:01:18;12.20;99.90
63966;DHT22;50151;52.030;5.350;2023-08-30T06:03:46;12.20;99.90
63966;DHT22;50151;52.030;5.350;2023-08-30T06:06:13;12.30;99.90
63966;DHT22;50151;52.030;5.350;2023-08-30T06:08:40;12.40;99.90
63966;DHT22;50151;52.030;5.350;2023-08-30T06:11:07;12.40;99.90
63966;DHT22;50151;52.030;5.350;2023-08-30T06:13:34;12.50;99.90
63966;DHT22;50151;52.030;5.350;2023-08-30T06:16:01;12.50;99.90
63966;DHT22;50151;52.030;5.350;2023-08-30T06:18:30;12.60;99.90
63966;DHT22;50151;52.030;5.350;2023-08-30T06:20:56;12.60;99.90
63966;DHT22;50151;52.030;5.350;2023-08-30T06:23:23;12.60;99.90
63966;DHT22;50151;52.030;5.350;2023-08-30T06:25:54;12.70;99.90
63966;DHT22;50151;52.030;5.350;2023-08-30T06:28:21;12.60;99.90
63966;DHT22;50151;52.030;5.350;2023-08-30T06:30:48;12.70;99.90
63966;DHT22;50151;52.030;5.350;2023-08-30T06:33:15;12.70;99.90
63966;DHT22;50151;52.030;5.350;2023-08-30T06:35:42;12.70;99.90
63966;DHT22;50151;52.030;5.350;2023-08-30T06:38:09;12.70;99.90
63966;DHT22;50151;52.030;5.350;2023-08-30T06:40:36;12.80;99.90
63966;DHT22;50151;52.030;5.350;2023-08-30T06:43:03;12.70;99.90
63966;DHT22;50151;52.030;5.350;2023-08-30T06:45:30;12.80;99.90
63966;DHT22;50151;52.030;5.350;2023-08-30T06:47:56;12.80;99.90
63966;DHT22;50151;52.030;5.350;2023-08-30T06:50:23;12.80;99.90
63966;DHT22;50151;52.030;5.350;2023-08-30T06:52:50;12.80;99.90
63966;DHT22;50151;52.030;5.350;2023-08-30T06:55:19;12.80;99.90
63966;DHT22;50151;52.030;5.350;2023-08-30T06:57:47;12.70;99.90
63966;DHT22;50151;52.030;5.350;2023-08-30T07:00:15;12.80;99.90
63966;DHT22;50151;52.030;5.350;2023-08-30T07:02:42;12.80;99.90
63966;DHT22;50151;52.030;5.350;2023-08-30T07:05:13;12.80;99.90
63966;DHT22;50151;52.030;5.350;2023-08-30T07:07:40;12.80;99.90
63966;DHT22;50151;52.030;5.350;2023-08-30T07:10:06;12.80;99.90
63966;DHT22;50151;52.030;5.350;2023-08-30T07:12:33;12.80;99.90
63966;DHT22;50151;52.030;5.350;2023-08-30T07:15:00;12.80;99.90
63966;DHT22;50151;52.030;5.350;2023-08-30T07:17:27;12.90;99.90
63966;DHT22;50151;52.030;5.350;2023-08-30T07:20:12;12.90;99.90
63966;DHT22;50151;52.030;5.350;2023-08-30T07:22:40;12.90;99.90
63966;DHT22;50151;52.030;5.350;2023-08-30T07:25:07;13.00;99.90
63966;DHT22;50151;52.030;5.350;2023-08-30T07:27:35;13.00;99.90
63966;DHT22;50151;52.030;5.350;2023-08-30T07:30:02;13.00;99.90
63966;DHT22;50151;52.030;5.350;2023-08-30T07:32:30;12.90;99.90
63966;DHT22;50151;52.030;5.350;2023-08-30T07:34:57;13.00;99.90
63966;DHT22;50151;52.030;5.350;2023-08-30T07:37:25;13.00;99.90
63966;DHT22;50151;52.030;5.350;2023-08-30T07:39:52;13.10;99.90
63966;DHT22;50151;52.030;5.350;2023-08-30T07:42:20;13.10;99.90
63966;DHT22;50151;52.030;5.350;2023-08-30T07:44:46;13.10;99.90
63966;DHT22;50151;52.030;5.350;2023-08-30T07:47:13;13.10;99.90
63966;DHT22;50151;52.030;5.350;2023-08-30T07:49:40;13.10;99.90
63966;DHT22;50151;52.030;5.350;2023-08-30T07:52:07;13.20;99.90
63966;DHT22;50151;52.030;5.350;2023-08-30T07:54:39;13.10;99.90
63966;DHT22;50151;52.030;5.350;2023-08-30T07:57:06;13.20;99.90
63966;DHT22;50151;52.030;5.350;2023-08-30T07:59:36;13.20;99.90
63966;DHT22;50151;52.030;5.350;2023-08-30T08:02:04;13.30;99.90
63966;DHT22;50151;52.030;5.350;2023-08-30T08:04:37;13.30;99.90
63966;DHT22;50151;52.030;5.350;2023-08-30T08:07:04;13.30;99.90
63966;DHT22;50151;52.030;5.350;2023-08-30T08:09:31;13.40;99.90
63966;DHT22;50151;52.030;5.350;2023-08-30T08:11:59;13.40;99.90
63966;DHT22;50151;52.030;5.350;2023-08-30T08:14:26;13.40;99.90
63966;DHT22;50151;52.030;5.350;2023-08-30T08:16:53;13.40;99.90
63966;DHT22;50151;52.030;5.350;2023-08-30T08:19:20;13.50;99.90
63966;DHT22;50151;52.030;5.350;2023-08-30T08:21:51;13.50;99.90
63966;DHT22;50151;52.030;5.350;2023-08-30T08:24:20;13.50;99.90
63966;DHT22;50151;52.030;5.350;2023-08-30T08:26:48;13.50;99.90
63966;DHT22;50151;52.030;5.350;2023-08-30T08:29:14;13.50;99.90
63966;DHT22;50151;52.030;5.350;2023-08-30T08:31:41;13.60;99.90
63966;DHT22;50151;52.030;5.350;2023-08-30T08:36:37;13.60;99.90
63966;DHT22;50151;52.030;5.350;2023-08-30T08:39:04;13.50;99.90
63966;DHT22;50151;52.030;5.350;2023-08-30T08:41:44;13.60;99.90
63966;DHT22;50151;52.030;5.350;2023-08-30T08:44:12;13.60;99.90
63966;DHT22;50151;52.030;5.350;2023-08-30T08:46:40;13.60;99.90
63966;DHT22;50151;52.030;5.350;2023-08-30T08:49:17;13.70;99.90
63966;DHT22;50151;52.030;5.350;2023-08-30T08:51:44;13.70;99.90
63966;DHT22;50151;52.030;5.350;2023-08-30T08:54:12;13.70;99.90
63966;DHT22;50151;52.030;5.350;2023-08-30T08:56:39;13.70;99.90
63966;DHT22;50151;52.030;5.350;2023-08-30T08:59:07;13.70;99.90
63966;DHT22;50151;52.030;5.350;2023-08-30T09:01:36;13.80;99.90
63966;DHT22;50151;52.030;5.350;2023-08-30T09:04:07;13.80;99.90
63966;DHT22;50151;52.030;5.350;2023-08-30T09:06:35;13.80;99.90
63966;DHT22;50151;52.030;5.350;2023-08-30T09:09:03;13.90;99.90
63966;DHT22;50151;52.030;5.350;2023-08-30T09:11:34;13.90;99.90
63966;DHT22;50151;52.030;5.350;2023-08-30T09:14:17;13.90;99.90
63966;DHT22;50151;52.030;5.350;2023-08-30T09:16:59;13.90;99.90
63966;DHT22;50151;52.030;5.350;2023-08-30T09:19:28;14.00;99.90
63966;DHT22;50151;52.030;5.350;2023-08-30T09:21:56;14.00;99.90
63966;DHT22;50151;52.030;5.350;2023-08-30T09:24:23;14.10;99.90
63966;DHT22;50151;52.030;5.350;2023-08-30T09:26:53;14.20;99.90
63966;DHT22;50151;52.030;5.350;2023-08-30T09:29:21;14.30;99.90
63966;DHT22;50151;52.030;5.350;2023-08-30T09:31:52;14.40;99.90
63966;DHT22;50151;52.030;5.350;2023-08-30T09:34:25;14.30;99.90
63966;DHT22;50151;52.030;5.350;2023-08-30T09:36:53;14.40;99.90
63966;DHT22;50151;52.030;5.350;2023-08-30T09:39:21;14.40;99.90
63966;DHT22;50151;52.030;5.350;2023-08-30T09:41:49;14.40;99.90
63966;DHT22;50151;52.030;5.350;2023-08-30T09:44:18;14.40;99.90
63966;DHT22;50151;52.030;5.350;2023-08-30T09:46:46;14.60;99.90
63966;DHT22;50151;52.030;5.350;2023-08-30T09:49:22;14.80;99.90
63966;DHT22;50151;52.030;5.350;2023-08-30T09:51:51;14.80;99.90
63966;DHT22;50151;52.030;5.350;2023-08-30T09:54:23;14.90;99.90
63966;DHT22;50151;52.030;5.350;2023-08-30T09:56:54;15.00;99.90
63966;DHT22;50151;52.030;5.350;2023-08-30T09:59:23;15.10;99.90
63966;DHT22;50151;52.030;5.350;2023-08-30T10:01:50;15.20;99.90
63966;DHT22;50151;52.030;5.350;2023-08-30T10:04:21;15.40;99.90
63966;DHT22;50151;52.030;5.350;2023-08-30T10:06:48;15.50;99.90
63966;DHT22;50151;52.030;5.350;2023-08-30T10:09:16;15.50;99.90
63966;DHT22;50151;52.030;5.350;2023-08-30T10:12:04;15.60;99.90
63966;DHT22;50151;52.030;5.350;2023-08-30T10:14:31;15.70;99.90
63966;DHT22;50151;52.030;5.350;2023-08-30T10:17:02;15.80;99.90
63966;DHT22;50151;52.030;5.350;2023-08-30T10:19:31;15.80;99.90
63966;DHT22;50151;52.030;5.350;2023-08-30T10:22:02;15.90;99.90
63966;DHT22;50151;52.030;5.350;2023-08-30T10:24:39;16.00;99.90
63966;DHT22;50151;52.030;5.350;2023-08-30T10:27:29;16.10;99.90
63966;DHT22;50151;52.030;5.350;2023-08-30T10:29:59;16.30;99.90
63966;DHT22;50151;52.030;5.350;2023-08-30T10:32:27;16.40;99.90
63966;DHT22;50151;52.030;5.350;2023-08-30T10:34:54;16.30;99.90
63966;DHT22;50151;52.030;5.350;2023-08-30T10:37:26;16.30;99.90
63966;DHT22;50151;52.030;5.350;2023-08-30T10:39:59;16.20;99.90
63966;DHT22;50151;52.030;5.350;2023-08-30T10:42:26;16.30;99.90
63966;DHT22;50151;52.030;5.350;2023-08-30T10:45:00;16.20;99.90
63966;DHT22;50151;52.030;5.350;2023-08-30T10:47:32;16.30;99.90
63966;DHT22;50151;52.030;5.350;2023-08-30T10:50:00;16.30;99.90
63966;DHT22;50151;52.030;5.350;2023-08-30T10:52:27;16.40;99.90
63966;DHT22;50151;52.030;5.350;2023-08-30T10:55:05;16.50;99.90
63966;DHT22;50151;52.030;5.350;2023-08-30T10:57:32;16.50;99.90
63966;DHT22;50151;52.030;5.350;2023-08-30T11:02:37;16.60;99.90
63966;DHT22;50151;52.030;5.350;2023-08-30T11:05:08;16.80;99.90
63966;DHT22;50151;52.030;5.350;2023-08-30T11:07:35;16.90;99.90
63966;DHT22;50151;52.030;5.350;2023-08-30T11:10:06;16.90;99.90
63966;DHT22;50151;52.030;5.350;2023-08-30T11:12:33;16.90;99.90
63966;DHT22;50151;52.030;5.350;2023-08-30T11:15:00;16.90;99.90
63966;DHT22;50151;52.030;5.350;2023-08-30T11:17:27;17.00;99.90
63966;DHT22;50151;52.030;5.350;2023-08-30T11:20:05;16.90;99.90
63966;DHT22;50151;52.030;5.350;2023-08-30T11:22:36;16.90;99.90
63966;DHT22;50151;52.030;5.350;2023-08-30T11:25:03;16.80;99.90
63966;DHT22;50151;52.030;5.350;2023-08-30T11:27:30;16.90;99.90
63966;DHT22;50151;52.030;5.350;2023-08-30T11:30:01;17.00;99.90
63966;DHT22;50151;52.030;5.350;2023-08-30T11:32:33;17.40;99.90
63966;DHT22;50151;52.030;5.350;2023-08-30T11:35:01;17.40;99.90
63966;DHT22;50151;52.030;5.350;2023-08-30T11:37:27;17.50;99.90
63966;DHT22;50151;52.030;5.350;2023-08-30T11:39:55;17.50;99.90
63966;DHT22;50151;52.030;5.350;2023-08-30T11:42:22;17.60;99.90
63966;DHT22;50151;52.030;5.350;2023-08-30T11:44:50;17.90;99.90
63966;DHT22;50151;52.030;5.350;2023-08-30T11:47:19;18.30;99.90
63966;DHT22;50151;52.030;5.350;2023-08-30T11:49:48;18.10;99.90
63966;DHT22;50151;52.030;5.350;2023-08-30T11:52:17;17.80;99.90
63966;DHT22;50151;52.030;5.350;2023-08-30T11:54:45;17.60;99.90
63966;DHT22;50151;52.030;5.350;2023-08-30T11:57:14;17.60;99.90
63966;DHT22;50151;52.030;5.350;2023-08-30T11:59:41;17.40;99.90
63966;DHT22;50151;52.030;5.350;2023-08-30T12:02:12;17.50;99.90
63966;DHT22;50151;52.030;5.350;2023-08-30T12:04:46;17.50;99.90
63966;DHT22;50151;52.030;5.350;2023-08-30T12:07:24;17.40;99.90
63966;DHT22;50151;52.030;5.350;2023-08-30T12:09:51;17.50;99.90
63966;DHT22;50151;52.030;5.350;2023-08-30T12:12:18;17.60;99.90
63966;DHT22;50151;52.030;5.350;2023-08-30T12:14:45;17.70;99.90
63966;DHT22;50151;52.030;5.350;2023-08-30T12:17:12;17.80;99.90
63966;DHT22;50151;52.030;5.350;2023-08-30T12:19:39;18.30;99.90
63966;DHT22;50151;52.030;5.350;2023-08-30T12:22:09;18.80;99.90
63966;DHT22;50151;52.030;5.350;2023-08-30T12:27:08;19.00;99.90
63966;DHT22;50151;52.030;5.350;2023-08-30T12:29:35;18.90;99.90
63966;DHT22;50151;52.030;5.350;2023-08-30T12:32:02;19.00;99.90
63966;DHT22;50151;52.030;5.350;2023-08-30T12:34:29;19.40;99.90
63966;DHT22;50151;52.030;5.350;2023-08-30T12:36:56;19.30;99.90
63966;DHT22;50151;52.030;5.350;2023-08-30T12:39:23;19.30;99.90
63966;DHT22;50151;52.030;5.350;2023-08-30T12:41:49;19.30;99.90
63966;DHT22;50151;52.030;5.350;2023-08-30T12:44:17;19.10;99.90
63966;DHT22;50151;52.030;5.350;2023-08-30T12:46:43;18.90;99.90
63966;DHT22;50151;52.030;5.350;2023-08-30T12:49:10;18.80;99.90
63966;DHT22;50151;52.030;5.350;2023-08-30T12:51:37;18.70;99.90
63966;DHT22;50151;52.030;5.350;2023-08-30T12:54:04;18.90;99.90
63966;DHT22;50151;52.030;5.350;2023-08-30T12:56:31;18.80;99.90
63966;DHT22;50151;52.030;5.350;2023-08-30T12:58:57;19.00;99.90
63966;DHT22;50151;52.030;5.350;2023-08-30T13:01:24;19.10;99.90
63966;DHT22;50151;52.030;5.350;2023-08-30T13:03:51;19.40;99.90
63966;DHT22;50151;52.030;5.350;2023-08-30T13:06:18;19.20;99.90
63966;DHT22;50151;52.030;5.350;2023-08-30T13:08:45;19.40;99.90
63966;DHT22;50151;52.030;5.350;2023-08-30T13:11:11;20.10;99.90
63966;DHT22;50151;52.030;5.350;2023-08-30T13:13:38;20.40;99.90
63966;DHT22;50151;52.030;5.350;2023-08-30T13:16:04;19.70;99.90
63966;DHT22;50151;52.030;5.350;2023-08-30T13:18:31;19.20;99.90
63966;DHT22;50151;52.030;5.350;2023-08-30T13:20:58;19.10;99.90
63966;DHT22;50151;52.030;5.350;2023-08-30T13:23:25;19.20;99.90
63966;DHT22;50151;52.030;5.350;2023-08-30T13:25:51;19.40;99.90
63966;DHT22;50151;52.030;5.350;2023-08-30T13:28:18;19.50;99.90
63966;DHT22;50151;52.030;5.350;2023-08-30T13:30:45;19.20;99.90
63966;DHT22;50151;52.030;5.350;2023-08-30T13:33:12;19.20;99.90
63966;DHT22;50151;52.030;5.350;2023-08-30T13:35:40;19.40;99.90
63966;DHT22;50151;52.030;5.350;2023-08-30T13:38:07;19.30;99.90
63966;DHT22;50151;52.030;5.350;2023-08-30T13:40:33;19.20;99.90
63966;DHT22;50151;52.030;5.350;2023-08-30T13:43:00;20.60;99.90
63966;DHT22;50151;52.030;5.350;2023-08-30T13:45:27;20.50;99.90
63966;DHT22;50151;52.030;5.350;2023-08-30T13:47:53;19.90;99.90
63966;DHT22;50151;52.030;5.350;2023-08-30T13:50:21;19.70;99.90
63966;DHT22;50151;52.030;5.350;2023-08-30T13:52:48;19.60;99.90
63966;DHT22;50151;52.030;5.350;2023-08-30T13:55:15;19.40;99.90
63966;DHT22;50151;52.030;5.350;2023-08-30T13:57:42;19.70;99.90
63966;DHT22;50151;52.030;5.350;2023-08-30T14:00:09;19.50;99.90
63966;DHT22;50151;52.030;5.350;2023-08-30T14:02:36;19.70;99.90
63966;DHT22;50151;52.030;5.350;2023-08-30T14:05:03;19.30;99.90
63966;DHT22;50151;52.030;5.350;2023-08-30T14:07:30;19.30;99.90
63966;DHT22;50151;52.030;5.350;2023-08-30T14:09:58;18.70;99.90
63966;DHT22;50151;52.030;5.350;2023-08-30T14:12:24;18.70;99.90
63966;DHT22;50151;52.030;5.350;2023-08-30T14:14:51;18.60;99.90
63966;DHT22;50151;52.030;5.350;2023-08-30T14:17:19;19.10;99.90
63966;DHT22;50151;52.030;5.350;2023-08-30T14:19:47;19.80;99.90
63966;DHT22;50151;52.030;5.350;2023-08-30T14:22:15;20.30;99.90
63966;DHT22;50151;52.030;5.350;2023-08-30T14:24:42;20.10;99.90
63966;DHT22;50151;52.030;5.350;2023-08-30T14:27:28;19.80;99.90
63966;DHT22;50151;52.030;5.350;2023-08-30T14:29:55;19.50;99.90
63966;DHT22;50151;52.030;5.350;2023-08-30T14:32:22;19.00;99.90
63966;DHT22;50151;52.030;5.350;2023-08-30T14:34:48;19.20;99.90
63966;DHT22;50151;52.030;5.350;2023-08-30T14:37:15;19.40;99.90
63966;DHT22;50151;52.030;5.350;2023-08-30T14:39:42;20.20;99.90
63966;DHT22;50151;52.030;5.350;2023-08-30T14:42:09;19.80;99.90
63966;DHT22;50151;52.030;5.350;2023-08-30T14:44:35;20.10;99.90
63966;DHT22;50151;52.030;5.350;2023-08-30T14:47:02;21.10;99.90
63966;DHT22;50151;52.030;5.350;2023-08-30T14:49:30;20.60;99.90
63966;DHT22;50151;52.030;5.350;2023-08-30T14:51:59;20.20;99.90
63966;DHT22;50151;52.030;5.350;2023-08-30T14:54:26;19.50;99.90
63966;DHT22;50151;52.030;5.350;2023-08-30T14:56:53;19.10;99.90
63966;DHT22;50151;52.030;5.350;2023-08-30T14:59:19;18.90;99.90
63966;DHT22;50151;52.030;5.350;2023-08-30T15:01:46;18.80;99.90
63966;DHT22;50151;52.030;5.350;2023-08-30T15:04:13;18.50;99.90
63966;DHT22;50151;52.030;5.350;2023-08-30T15:06:40;18.70;99.90
63966;DHT22;50151;52.030;5.350;2023-08-30T15:09:09;18.80;99.90
63966;DHT22;50151;52.030;5.350;2023-08-30T15:11:36;18.80;99.90
63966;DHT22;50151;52.030;5.350;2023-08-30T15:14:04;18.90;99.90
63966;DHT22;50151;52.030;5.350;2023-08-30T15:16:30;19.10;99.90
63966;DHT22;50151;52.030;5.350;2023-08-30T15:18:57;19.50;99.90
63966;DHT22;50151;52.030;5.350;2023-08-30T15:21:24;19.70;99.90
63966;DHT22;50151;52.030;5.350;2023-08-30T15:23:51;19.20;99.90
63966;DHT22;50151;52.030;5.350;2023-08-30T15:26:17;18.70;99.90
63966;DHT22;50151;52.030;5.350;2023-08-30T15:28:47;18.70;99.90
63966;DHT22;50151;52.030;5.350;2023-08-30T15:31:15;18.50;99.90
63966;DHT22;50151;52.030;5.350;2023-08-30T15:33:42;18.50;99.90
63966;DHT22;50151;52.030;5.350;2023-08-30T15:36:09;18.80;99.90
63966;DHT22;50151;52.030;5.350;2023-08-30T15:38:36;19.00;99.90
63966;DHT22;50151;52.030;5.350;2023-08-30T15:41:09;19.10;99.90
63966;DHT22;50151;52.030;5.350;2023-08-30T15:43:39;18.80;99.90
63966;DHT22;50151;52.030;5.350;2023-08-30T15:46:10;18.40;99.90
63966;DHT22;50151;52.030;5.350;2023-08-30T15:48:38;18.50;99.90